sensor_id;sensor_type;location;lat;lon;timestamp;P1;durP1;ratioP1;P2;durP2;ratioP2
45863;SDS011;31579;52.354;16.974;2023-02-01T00:02:07;9.20;;;2.40;;
45863;SDS011;31579;52.354;16.974;2023-02-01T00:07:07;9.20;;;2.40;;
45863;SDS011;31579;52.354;16.974;2023-02-01T00:12:07;15.10;;;2.50;;
45863;SDS011;31579;52.354;16.974;2023-02-01T00:17:07;15.10;;;2.50;;
45863;SDS011;31579;52.354;16.974;2023-02-01T00:25:04;18.00;;;2.80;;
45863;SDS011;31579;52.354;16.974;2023-02-01T00:30:04;15.10;;;2.80;;
45863;SDS011;31579;52.354;16.974;2023-02-01T00:35:04;15.10;;;2.80;;
45863;SDS011;31579;52.354;16.974;2023-02-01T00:40:04;14.70;;;3.00;;
45863;SDS011;31579;52.354;16.974;2023-02-01T00:45:04;14.70;;;3.00;;
45863;SDS011;31579;52.354;16.974;2023-02-01T00:50:04;10.60;;;2.70;;
45863;SDS011;31579;52.354;16.974;2023-02-01T00:55:04;10.60;;;2.70;;
45863;SDS011;31579;52.354;16.974;2023-02-01T01:00:04;14.90;;;2.80;;
45863;SDS011;31579;52.354;16.974;2023-02-01T01:05:04;14.90;;;2.80;;
45863;SDS011;31579;52.354;16.974;2023-02-01T01:10:04;15.80;;;3.10;;
45863;SDS011;31579;52.354;16.974;2023-02-01T01:15:04;15.80;;;3.10;;
45863;SDS011;31579;52.354;16.974;2023-02-01T01:16:58;15.80;;;3.10;;
45863;SDS011;31579;52.354;16.974;2023-02-01T01:21:56;13.20;;;2.80;;
45863;SDS011;31579;52.354;16.974;2023-02-01T01:26:56;13.20;;;2.80;;
45863;SDS011;31579;52.354;16.974;2023-02-01T01:31:56;14.00;;;2.50;;
45863;SDS011;31579;52.354;16.974;2023-02-01T01:36:56;14.00;;;2.50;;
45863;SDS011;31579;52.354;16.974;2023-02-01T01:41:56;14.80;;;2.70;;
45863;SDS011;31579;52.354;16.974;2023-02-01T01:46:56;14.80;;;2.70;;
45863;SDS011;31579;52.354;16.974;2023-02-01T01:51:57;14.30;;;2.70;;
45863;SDS011;31579;52.354;16.974;2023-02-01T01:57:01;14.30;;;2.70;;
45863;SDS011;31579;52.354;16.974;2023-02-01T02:04:02;13.00;;;2.20;;
45863;SDS011;31579;52.354;16.974;2023-02-01T02:09:02;13.00;;;2.20;;
45863;SDS011;31579;52.354;16.974;2023-02-01T02:14:02;16.40;;;3.10;;
45863;SDS011;31579;52.354;16.974;2023-02-01T02:44:16;15.30;;;2.20;;
45863;SDS011;31579;52.354;16.974;2023-02-01T02:49:15;15.30;;;2.20;;
45863;SDS011;31579;52.354;16.974;2023-02-01T02:54:11;17.20;;;2.80;;
45863;SDS011;31579;52.354;16.974;2023-02-01T02:59:09;17.20;;;2.80;;
45863;SDS011;31579;52.354;16.974;2023-02-01T03:04:09;11.20;;;2.40;;
45863;SDS011;31579;52.354;16.974;2023-02-01T03:14:18;12.80;;;2.90;;
45863;SDS011;31579;52.354;16.974;2023-02-01T03:19:22;12.80;;;2.90;;
45863;SDS011;31579;52.354;16.974;2023-02-01T03:29:19;15.00;;;2.90;;
45863;SDS011;31579;52.354;16.974;2023-02-01T03:34:18;17.30;;;2.90;;
45863;SDS011;31579;52.354;16.974;2023-02-01T03:54:18;17.80;;;3.30;;
45863;SDS011;31579;52.354;16.974;2023-02-01T03:59:18;17.80;;;3.30;;
45863;SDS011;31579;52.354;16.974;2023-02-01T04:04:18;13.30;;;3.00;;
45863;SDS011;31579;52.354;16.974;2023-02-01T04:09:18;13.30;;;3.00;;
45863;SDS011;31579;52.354;16.974;2023-02-01T04:14:18;17.30;;;2.60;;
45863;SDS011;31579;52.354;16.974;2023-02-01T04:19:18;17.30;;;2.60;;
45863;SDS011;31579;52.354;16.974;2023-02-01T04:24:18;14.30;;;3.00;;
45863;SDS011;31579;52.354;16.974;2023-02-01T04:29:18;14.30;;;3.00;;
45863;SDS011;31579;52.354;16.974;2023-02-01T04:34:18;14.40;;;2.60;;
45863;SDS011;31579;52.354;16.974;2023-02-01T04:39:18;14.40;;;2.60;;
45863;SDS011;31579;52.354;16.974;2023-02-01T04:44:18;13.30;;;2.40;;
45863;SDS011;31579;52.354;16.974;2023-02-01T04:49:21;13.30;;;2.40;;
45863;SDS011;31579;52.354;16.974;2023-02-01T04:54:18;14.20;;;2.50;;
45863;SDS011;31579;52.354;16.974;2023-02-01T04:59:18;14.20;;;2.50;;
45863;SDS011;31579;52.354;16.974;2023-02-01T05:07:01;12.70;;;2.60;;
45863;SDS011;31579;52.354;16.974;2023-02-01T05:12:01;10.10;;;2.00;;
45863;SDS011;31579;52.354;16.974;2023-02-01T05:15:57;10.10;;;2.00;;
45863;SDS011;31579;52.354;16.974;2023-02-01T05:20:55;11.80;;;2.40;;
45863;SDS011;31579;52.354;16.974;2023-02-01T05:25:59;11.80;;;2.40;;
45863;SDS011;31579;52.354;16.974;2023-02-01T05:30:55;13.50;;;2.70;;
45863;SDS011;31579;52.354;16.974;2023-02-01T05:35:55;13.50;;;2.70;;
45863;SDS011;31579;52.354;16.974;2023-02-01T05:40:56;12.70;;;2.80;;
45863;SDS011;31579;52.354;16.974;2023-02-01T05:45:55;12.70;;;2.80;;
45863;SDS011;31579;52.354;16.974;2023-02-01T05:50:55;13.60;;;2.60;;
45863;SDS011;31579;52.354;16.974;2023-02-01T05:55:55;13.60;;;2.60;;
45863;SDS011;31579;52.354;16.974;2023-02-01T06:00:55;16.80;;;3.80;;
45863;SDS011;31579;52.354;16.974;2023-02-01T06:05:55;16.80;;;3.80;;
45863;SDS011;31579;52.354;16.974;2023-02-01T06:11:02;16.80;;;3.50;;
45863;SDS011;31579;52.354;16.974;2023-02-01T06:18:56;16.80;;;3.50;;
45863;SDS011;31579;52.354;16.974;2023-02-01T06:23:56;16.00;;;4.00;;
45863;SDS011;31579;52.354;16.974;2023-02-01T06:28:56;16.00;;;4.00;;
45863;SDS011;31579;52.354;16.974;2023-02-01T06:33:56;22.30;;;3.60;;
45863;SDS011;31579;52.354;16.974;2023-02-01T06:38:56;22.30;;;3.60;;
45863;SDS011;31579;52.354;16.974;2023-02-01T06:43:56;20.70;;;4.00;;
45863;SDS011;31579;52.354;16.974;2023-02-01T06:48:56;20.70;;;4.00;;
45863;SDS011;31579;52.354;16.974;2023-02-01T06:53:56;20.60;;;4.10;;
45863;SDS011;31579;52.354;16.974;2023-02-01T06:58:56;20.60;;;4.10;;
45863;SDS011;31579;52.354;16.974;2023-02-01T07:03:56;16.20;;;3.90;;
45863;SDS011;31579;52.354;16.974;2023-02-01T07:08:56;16.20;;;3.90;;
45863;SDS011;31579;52.354;16.974;2023-02-01T07:13:56;16.80;;;4.00;;
45863;SDS011;31579;52.354;16.974;2023-02-01T07:18:56;16.80;;;4.00;;
45863;SDS011;31579;52.354;16.974;2023-02-01T07:23:56;17.30;;;3.90;;
45863;SDS011;31579;52.354;16.974;2023-02-01T07:28:56;17.30;;;3.90;;
45863;SDS011;31579;52.354;16.974;2023-02-01T07:33:07;24.20;;;4.20;;
45863;SDS011;31579;52.354;16.974;2023-02-01T07:38:05;24.20;;;4.20;;
45863;SDS011;31579;52.354;16.974;2023-02-01T07:43:05;23.90;;;4.80;;
45863;SDS011;31579;52.354;16.974;2023-02-01T07:48:05;23.90;;;4.80;;
45863;SDS011;31579;52.354;16.974;2023-02-01T07:53:05;20.20;;;4.50;;
45863;SDS011;31579;52.354;16.974;2023-02-01T07:58:05;20.20;;;4.50;;
45863;SDS011;31579;52.354;16.974;2023-02-01T08:03:05;20.00;;;4.40;;
45863;SDS011;31579;52.354;16.974;2023-02-01T08:08:06;20.00;;;4.40;;
45863;SDS011;31579;52.354;16.974;2023-02-01T08:13:05;19.70;;;5.10;;
45863;SDS011;31579;52.354;16.974;2023-02-01T08:18:05;19.70;;;5.10;;
45863;SDS011;31579;52.354;16.974;2023-02-01T08:23:07;23.60;;;5.40;;
45863;SDS011;31579;52.354;16.974;2023-02-01T08:28:06;23.60;;;5.40;;
45863;SDS011;31579;52.354;16.974;2023-02-01T08:33:05;24.70;;;5.60;;
45863;SDS011;31579;52.354;16.974;2023-02-01T08:38:05;24.70;;;5.60;;
45863;SDS011;31579;52.354;16.974;2023-02-01T08:43:05;19.20;;;5.50;;
45863;SDS011;31579;52.354;16.974;2023-02-01T08:48:08;19.20;;;5.50;;
45863;SDS011;31579;52.354;16.974;2023-02-01T08:53:05;25.90;;;7.30;;
45863;SDS011;31579;52.354;16.974;2023-02-01T08:58:05;25.90;;;7.30;;
45863;SDS011;31579;52.354;16.974;2023-02-01T09:03:05;25.10;;;7.40;;
45863;SDS011;31579;52.354;16.974;2023-02-01T09:08:05;25.10;;;7.40;;
45863;SDS011;31579;52.354;16.974;2023-02-01T09:13:05;19.60;;;5.20;;
45863;SDS011;31579;52.354;16.974;2023-02-01T09:18:05;19.60;;;5.20;;
45863;SDS011;31579;52.354;16.974;2023-02-01T09:23:06;18.90;;;4.80;;
45863;SDS011;31579;52.354;16.974;2023-02-01T09:28:05;18.90;;;4.80;;
45863;SDS011;31579;52.354;16.974;2023-02-01T09:33:05;16.00;;;4.10;;
45863;SDS011;31579;52.354;16.974;2023-02-01T09:38:05;16.00;;;4.10;;
45863;SDS011;31579;52.354;16.974;2023-02-01T09:53:10;14.30;;;4.00;;
45863;SDS011;31579;52.354;16.974;2023-02-01T09:58:07;14.30;;;4.00;;
45863;SDS011;31579;52.354;16.974;2023-02-01T10:03:07;14.30;;;4.50;;
45863;SDS011;31579;52.354;16.974;2023-02-01T10:08:15;14.30;;;4.50;;
45863;SDS011;31579;52.354;16.974;2023-02-01T10:30:49;16.50;;;4.60;;
45863;SDS011;31579;52.354;16.974;2023-02-01T10:35:52;16.50;;;4.60;;
45863;SDS011;31579;52.354;16.974;2023-02-01T10:40:48;16.70;;;4.60;;
45863;SDS011;31579;52.354;16.974;2023-02-01T10:49:33;15.20;;;4.60;;
45863;SDS011;31579;52.354;16.974;2023-02-01T10:54:34;15.20;;;4.60;;
45863;SDS011;31579;52.354;16.974;2023-02-01T10:59:32;14.20;;;4.40;;
45863;SDS011;31579;52.354;16.974;2023-02-01T11:04:33;14.20;;;4.40;;
45863;SDS011;31579;52.354;16.974;2023-02-01T11:09:32;14.80;;;4.60;;
45863;SDS011;31579;52.354;16.974;2023-02-01T11:19:32;9.10;;;4.50;;
45863;SDS011;31579;52.354;16.974;2023-02-01T11:24:33;9.10;;;4.50;;
45863;SDS011;31579;52.354;16.974;2023-02-01T11:29:36;12.60;;;4.80;;
45863;SDS011;31579;52.354;16.974;2023-02-01T12:27:19;14.00;;;5.10;;
45863;SDS011;31579;52.354;16.974;2023-02-01T12:32:11;10.40;;;3.80;;
45863;SDS011;31579;52.354;16.974;2023-02-01T12:37:13;10.40;;;3.80;;
45863;SDS011;31579;52.354;16.974;2023-02-01T12:47:07;11.00;;;4.20;;
45863;SDS011;31579;52.354;16.974;2023-02-01T12:52:07;9.50;;;3.20;;
45863;SDS011;31579;52.354;16.974;2023-02-01T12:57:09;9.50;;;3.20;;
45863;SDS011;31579;52.354;16.974;2023-02-01T13:10:43;10.60;;;3.50;;
45863;SDS011;31579;52.354;16.974;2023-02-01T13:16:07;10.60;;;3.50;;
45863;SDS011;31579;52.354;16.974;2023-02-01T13:21:07;10.10;;;3.50;;
45863;SDS011;31579;52.354;16.974;2023-02-01T13:30:13;9.50;;;3.40;;
45863;SDS011;31579;52.354;16.974;2023-02-01T13:44:13;10.40;;;2.90;;
45863;SDS011;31579;52.354;16.974;2023-02-01T14:04:44;12.00;;;3.10;;
45863;SDS011;31579;52.354;16.974;2023-02-01T14:19:23;12.00;;;2.60;;
45863;SDS011;31579;52.354;16.974;2023-02-01T14:34:14;11.80;;;3.30;;
45863;SDS011;31579;52.354;16.974;2023-02-01T14:41:57;13.30;;;3.80;;
45863;SDS011;31579;52.354;16.974;2023-02-01T14:52:01;14.10;;;4.10;;
45863;SDS011;31579;52.354;16.974;2023-02-01T14:56:55;14.10;;;4.10;;
45863;SDS011;31579;52.354;16.974;2023-02-01T15:01:56;15.50;;;4.00;;
45863;SDS011;31579;52.354;16.974;2023-02-01T15:06:57;15.50;;;4.00;;
45863;SDS011;31579;52.354;16.974;2023-02-01T15:17:16;15.70;;;4.50;;
45863;SDS011;31579;52.354;16.974;2023-02-01T15:22:04;15.30;;;4.80;;
45863;SDS011;31579;52.354;16.974;2023-02-01T15:27:04;15.30;;;4.80;;
45863;SDS011;31579;52.354;16.974;2023-02-01T15:32:04;14.60;;;4.30;;
45863;SDS011;31579;52.354;16.974;2023-02-01T15:37:04;14.60;;;4.30;;
45863;SDS011;31579;52.354;16.974;2023-02-01T15:47:06;12.90;;;3.90;;
45863;SDS011;31579;52.354;16.974;2023-02-01T15:51:10;15.50;;;4.70;;
45863;SDS011;31579;52.354;16.974;2023-02-01T15:56:05;15.50;;;4.70;;
45863;SDS011;31579;52.354;16.974;2023-02-01T16:01:04;11.50;;;3.70;;
45863;SDS011;31579;52.354;16.974;2023-02-01T16:06:07;11.50;;;3.70;;
45863;SDS011;31579;52.354;16.974;2023-02-01T16:11:19;12.50;;;4.10;;
45863;SDS011;31579;52.354;16.974;2023-02-01T16:16:12;12.50;;;4.10;;
45863;SDS011;31579;52.354;16.974;2023-02-01T16:21:12;14.80;;;6.20;;
45863;SDS011;31579;52.354;16.974;2023-02-01T16:26:12;14.80;;;6.20;;
45863;SDS011;31579;52.354;16.974;2023-02-01T16:31:12;12.70;;;5.10;;
45863;SDS011;31579;52.354;16.974;2023-02-01T16:36:12;12.70;;;5.10;;
45863;SDS011;31579;52.354;16.974;2023-02-01T16:41:12;15.50;;;5.80;;
45863;SDS011;31579;52.354;16.974;2023-02-01T16:46:15;15.50;;;5.80;;
45863;SDS011;31579;52.354;16.974;2023-02-01T16:55:20;12.60;;;5.30;;
45863;SDS011;31579;52.354;16.974;2023-02-01T17:00:19;22.10;;;8.00;;
45863;SDS011;31579;52.354;16.974;2023-02-01T17:05:19;22.10;;;8.00;;
45863;SDS011;31579;52.354;16.974;2023-02-01T17:10:22;14.60;;;5.40;;
45863;SDS011;31579;52.354;16.974;2023-02-01T17:15:19;14.60;;;5.40;;
45863;SDS011;31579;52.354;16.974;2023-02-01T17:20:20;15.30;;;5.90;;
45863;SDS011;31579;52.354;16.974;2023-02-01T17:25:20;15.30;;;5.90;;
45863;SDS011;31579;52.354;16.974;2023-02-01T17:30:19;17.70;;;7.30;;
45863;SDS011;31579;52.354;16.974;2023-02-01T17:35:22;17.70;;;7.30;;
45863;SDS011;31579;52.354;16.974;2023-02-01T17:40:19;17.50;;;5.10;;
45863;SDS011;31579;52.354;16.974;2023-02-01T17:45:24;17.50;;;5.10;;
45863;SDS011;31579;52.354;16.974;2023-02-01T17:50:19;16.60;;;6.50;;
45863;SDS011;31579;52.354;16.974;2023-02-01T17:55:20;16.60;;;6.50;;
45863;SDS011;31579;52.354;16.974;2023-02-01T18:00:20;20.00;;;7.30;;
45863;SDS011;31579;52.354;16.974;2023-02-01T18:05:21;20.00;;;7.30;;
45863;SDS011;31579;52.354;16.974;2023-02-01T18:10:19;20.40;;;7.70;;
45863;SDS011;31579;52.354;16.974;2023-02-01T18:15:21;20.40;;;7.70;;
45863;SDS011;31579;52.354;16.974;2023-02-01T18:20:20;17.40;;;6.50;;
45863;SDS011;31579;52.354;16.974;2023-02-01T18:25:21;17.40;;;6.50;;
45863;SDS011;31579;52.354;16.974;2023-02-01T18:30:24;14.30;;;5.70;;
45863;SDS011;31579;52.354;16.974;2023-02-01T18:35:20;14.30;;;5.70;;
45863;SDS011;31579;52.354;16.974;2023-02-01T18:40:20;18.40;;;7.50;;
45863;SDS011;31579;52.354;16.974;2023-02-01T18:45:37;18.40;;;7.50;;
45863;SDS011;31579;52.354;16.974;2023-02-01T18:50:29;16.90;;;7.60;;
45863;SDS011;31579;52.354;16.974;2023-02-01T18:55:29;16.90;;;7.60;;
45863;SDS011;31579;52.354;16.974;2023-02-01T19:00:29;20.50;;;8.60;;
45863;SDS011;31579;52.354;16.974;2023-02-01T19:05:29;20.50;;;8.60;;
45863;SDS011;31579;52.354;16.974;2023-02-01T19:10:29;24.70;;;11.80;;
45863;SDS011;31579;52.354;16.974;2023-02-01T19:15:29;24.70;;;11.80;;
45863;SDS011;31579;52.354;16.974;2023-02-01T19:20:29;29.80;;;14.00;;
45863;SDS011;31579;52.354;16.974;2023-02-01T19:25:29;29.80;;;14.00;;
45863;SDS011;31579;52.354;16.974;2023-02-01T19:30:29;17.40;;;7.20;;
45863;SDS011;31579;52.354;16.974;2023-02-01T19:35:29;17.40;;;7.20;;
45863;SDS011;31579;52.354;16.974;2023-02-01T19:40:29;13.50;;;6.40;;
45863;SDS011;31579;52.354;16.974;2023-02-01T19:45:29;13.50;;;6.40;;
45863;SDS011;31579;52.354;16.974;2023-02-01T19:50:29;17.40;;;7.70;;
45863;SDS011;31579;52.354;16.974;2023-02-01T19:55:29;17.40;;;7.70;;
45863;SDS011;31579;52.354;16.974;2023-02-01T20:00:29;20.00;;;8.20;;
45863;SDS011;31579;52.354;16.974;2023-02-01T20:05:29;20.00;;;8.20;;
45863;SDS011;31579;52.354;16.974;2023-02-01T20:10:29;18.80;;;8.30;;
45863;SDS011;31579;52.354;16.974;2023-02-01T20:15:29;18.80;;;8.30;;
45863;SDS011;31579;52.354;16.974;2023-02-01T20:20:29;12.20;;;5.60;;
45863;SDS011;31579;52.354;16.974;2023-02-01T20:25:33;12.20;;;5.60;;
45863;SDS011;31579;52.354;16.974;2023-02-01T20:30:29;12.60;;;5.60;;
45863;SDS011;31579;52.354;16.974;2023-02-01T20:35:29;12.60;;;5.60;;
45863;SDS011;31579;52.354;16.974;2023-02-01T20:40:29;13.40;;;5.90;;
45863;SDS011;31579;52.354;16.974;2023-02-01T20:45:29;13.40;;;5.90;;
45863;SDS011;31579;52.354;16.974;2023-02-01T20:50:29;13.70;;;5.40;;
45863;SDS011;31579;52.354;16.974;2023-02-01T20:55:29;13.70;;;5.40;;
45863;SDS011;31579;52.354;16.974;2023-02-01T21:00:29;17.40;;;6.80;;
45863;SDS011;31579;52.354;16.974;2023-02-01T21:05:29;17.40;;;6.80;;
45863;SDS011;31579;52.354;16.974;2023-02-01T21:10:29;18.10;;;7.20;;
45863;SDS011;31579;52.354;16.974;2023-02-01T21:15:29;18.10;;;7.20;;
45863;SDS011;31579;52.354;16.974;2023-02-01T21:20:29;16.20;;;7.10;;
45863;SDS011;31579;52.354;16.974;2023-02-01T21:25:29;16.20;;;7.10;;
45863;SDS011;31579;52.354;16.974;2023-02-01T21:30:29;18.00;;;6.70;;
45863;SDS011;31579;52.354;16.974;2023-02-01T21:40:37;13.10;;;5.30;;
45863;SDS011;31579;52.354;16.974;2023-02-01T21:45:37;13.10;;;5.30;;
45863;SDS011;31579;52.354;16.974;2023-02-01T21:50:37;11.00;;;4.20;;
45863;SDS011;31579;52.354;16.974;2023-02-01T21:55:37;11.00;;;4.20;;
45863;SDS011;31579;52.354;16.974;2023-02-01T22:00:38;8.50;;;3.30;;
45863;SDS011;31579;52.354;16.974;2023-02-01T22:05:37;8.50;;;3.30;;
45863;SDS011;31579;52.354;16.974;2023-02-01T22:10:37;10.90;;;3.50;;
45863;SDS011;31579;52.354;16.974;2023-02-01T22:15:37;10.90;;;3.50;;
45863;SDS011;31579;52.354;16.974;2023-02-01T22:20:37;13.50;;;3.20;;
45863;SDS011;31579;52.354;16.974;2023-02-01T22:25:37;13.50;;;3.20;;
45863;SDS011;31579;52.354;16.974;2023-02-01T22:30:37;14.10;;;3.00;;
45863;SDS011;31579;52.354;16.974;2023-02-01T22:35:37;14.10;;;3.00;;
45863;SDS011;31579;52.354;16.974;2023-02-01T22:40:37;12.30;;;3.10;;
45863;SDS011;31579;52.354;16.974;2023-02-01T22:45:37;12.30;;;3.10;;
45863;SDS011;31579;52.354;16.974;2023-02-01T22:50:37;15.70;;;3.50;;
45863;SDS011;31579;52.354;16.974;2023-02-01T22:55:37;15.70;;;3.50;;
45863;SDS011;31579;52.354;16.974;2023-02-01T23:00:48;16.20;;;3.60;;
45863;SDS011;31579;52.354;16.974;2023-02-01T23:05:47;16.20;;;3.60;;
45863;SDS011;31579;52.354;16.974;2023-02-01T23:10:47;15.70;;;3.90;;
45863;SDS011;31579;52.354;16.974;2023-02-01T23:15:47;15.70;;;3.90;;
45863;SDS011;31579;52.354;16.974;2023-02-01T23:20:47;18.50;;;3.30;;
45863;SDS011;31579;52.354;16.974;2023-02-01T23:25:48;18.50;;;3.30;;
45863;SDS011;31579;52.354;16.974;2023-02-01T23:30:47;16.80;;;3.60;;
45863;SDS011;31579;52.354;16.974;2023-02-01T23:40:47;17.90;;;3.70;;
45863;SDS011;31579;52.354;16.974;2023-02-01T23:45:47;17.90;;;3.70;;
45863;SDS011;31579;52.354;16.974;2023-02-01T23:50:47;19.00;;;3.80;;
45863;SDS011;31579;52.354;16.974;2023-02-01T23:55:50;19.00;;;3.80;;
